TimeEST,TemperatureF,Dew PointF,Humidity,Sea Level PressureIn,VisibilityMPH,Wind Direction,Wind SpeedMPH,Gust SpeedMPH,PrecipitationIn,Events,Conditions,WindDirDegrees,DateUTC
12:34 AM,33.8,28.4,81,30.03,10.0,West,17.3,23.0,N/A,,Overcast,280,2013-01-14 05:34:00
12:54 AM,32.0,26.6,80,30.04,10.0,West,13.8,23.0,N/A,,Overcast,270,2013-01-14 05:54:00
1:14 AM,32.0,26.6,80,30.05,10.0,West,13.8,21.9,N/A,,Mostly Cloudy,280,2013-01-14 06:14:00
1:34 AM,32.0,26.6,80,30.06,10.0,WNW,11.5,21.9,N/A,,Overcast,290,2013-01-14 06:34:00
1:54 AM,30.2,24.8,80,30.08,10.0,West,11.5,-,N/A,,Overcast,280,2013-01-14 06:54:00
2:14 AM,30.2,24.8,80,30.09,10.0,WNW,13.8,20.7,N/A,,Overcast,290,2013-01-14 07:14:00
2:34 AM,30.2,23.0,75,30.11,10.0,WNW,16.1,23.0,N/A,,Overcast,290,2013-01-14 07:34:00
2:54 AM,30.2,21.2,69,30.13,10.0,West,15.0,23.0,N/A,,Overcast,280,2013-01-14 07:54:00
3:14 AM,30.2,21.2,69,30.14,10.0,West,15.0,21.9,N/A,,Overcast,280,2013-01-14 08:14:00
3:34 AM,28.4,21.2,74,30.15,10.0,West,15.0,20.7,N/A,,Overcast,270,2013-01-14 08:34:00
3:54 AM,28.4,21.2,74,30.16,10.0,West,15.0,23.0,N/A,,Overcast,280,2013-01-14 08:54:00
4:14 AM,28.4,21.2,74,30.17,10.0,West,12.7,19.6,N/A,,Overcast,270,2013-01-14 09:14:00
4:34 AM,28.4,21.2,74,30.18,10.0,West,11.5,21.9,N/A,,Overcast,280,2013-01-14 09:34:00
4:54 AM,26.6,19.4,74,30.19,10.0,West,15.0,-,N/A,,Overcast,270,2013-01-14 09:54:00
5:14 AM,26.6,19.4,74,30.19,10.0,West,18.4,24.2,N/A,,Overcast,280,2013-01-14 10:14:00
5:34 AM,26.6,19.4,74,30.20,10.0,West,13.8,21.9,N/A,,Overcast,270,2013-01-14 10:34:00
5:55 AM,26.6,19.4,74,30.22,10.0,West,15.0,21.9,N/A,,Overcast,270,2013-01-14 10:55:00
6:14 AM,26.6,19.4,74,30.23,10.0,West,10.4,18.4,N/A,,Overcast,270,2013-01-14 11:14:00
6:34 AM,26.6,19.4,74,30.25,10.0,West,10.4,-,N/A,,Overcast,280,2013-01-14 11:34:00
6:55 AM,26.6,17.6,69,30.26,10.0,West,13.8,19.6,N/A,,Overcast,280,2013-01-14 11:55:00
7:14 AM,24.8,17.6,74,30.26,10.0,West,9.2,18.4,N/A,,Overcast,280,2013-01-14 12:14:00
7:34 AM,26.6,19.4,74,30.27,10.0,WNW,10.4,-,N/A,,Overcast,290,2013-01-14 12:34:00
7:54 AM,26.6,19.4,74,30.28,10.0,WNW,11.5,16.1,N/A,,Overcast,290,2013-01-14 12:54:00
8:14 AM,26.6,19.4,74,30.30,10.0,WNW,12.7,16.1,N/A,,Overcast,300,2013-01-14 13:14:00
8:35 AM,26.6,17.6,69,30.32,10.0,WNW,10.4,-,N/A,,Overcast,300,2013-01-14 13:35:00
8:54 AM,26.6,17.6,69,30.33,10.0,West,11.5,-,N/A,,Overcast,280,2013-01-14 13:54:00
9:14 AM,26.6,19.4,74,30.34,10.0,WNW,6.9,-,N/A,,Overcast,290,2013-01-14 14:14:00
9:34 AM,26.6,17.6,69,30.35,10.0,NW,9.2,16.1,N/A,,Overcast,310,2013-01-14 14:34:00
9:54 AM,26.6,17.6,69,30.37,10.0,WNW,9.2,-,N/A,,Overcast,300,2013-01-14 14:54:00
10:14 AM,24.8,17.6,74,30.37,10.0,NW,11.5,-,N/A,,Overcast,320,2013-01-14 15:14:00
10:34 AM,24.8,17.6,74,30.37,10.0,WNW,9.2,-,N/A,,Overcast,300,2013-01-14 15:34:00
10:54 AM,24.8,15.8,69,30.37,10.0,NW,8.1,-,N/A,,Overcast,310,2013-01-14 15:54:00
11:14 AM,26.6,15.8,64,30.37,10.0,West,8.1,-,N/A,,Overcast,270,2013-01-14 16:14:00
11:34 AM,26.6,17.6,69,30.37,10.0,West,6.9,-,N/A,,Overcast,280,2013-01-14 16:34:00
11:54 AM,26.6,15.8,64,30.35,10.0,NW,5.8,-,N/A,,Overcast,310,2013-01-14 16:54:00
12:14 PM,24.8,15.8,69,30.35,10.0,NNW,3.5,-,N/A,,Overcast,340,2013-01-14 17:14:00
12:34 PM,24.8,17.6,74,30.33,10.0,NNW,3.5,-,N/A,,Overcast,330,2013-01-14 17:34:00
12:54 PM,26.6,15.8,64,30.33,10.0,Calm,Calm,-,N/A,,Overcast,0,2013-01-14 17:54:00
1:15 PM,26.6,15.8,64,30.32,10.0,WNW,3.5,-,N/A,,Overcast,300,2013-01-14 18:15:00
1:34 PM,26.6,15.8,64,30.33,10.0,West,6.9,-,N/A,,Overcast,270,2013-01-14 18:34:00
1:54 PM,26.6,15.8,64,30.33,10.0,West,5.8,-,N/A,,Mostly Cloudy,270,2013-01-14 18:54:00
2:14 PM,26.6,15.8,64,30.35,10.0,West,4.6,-,N/A,,Mostly Cloudy,260,2013-01-14 19:14:00
2:34 PM,26.6,15.8,64,30.36,10.0,Calm,Calm,-,N/A,,Mostly Cloudy,0,2013-01-14 19:34:00
2:54 PM,26.6,15.8,64,30.36,10.0,WSW,6.9,-,N/A,,Overcast,250,2013-01-14 19:54:00
3:14 PM,28.4,15.8,59,30.36,10.0,WNW,3.5,-,N/A,,Overcast,290,2013-01-14 20:14:00
3:34 PM,28.4,15.8,59,30.37,10.0,West,5.8,-,N/A,,Mostly Cloudy,260,2013-01-14 20:34:00
3:54 PM,26.6,15.8,64,30.38,10.0,SW,4.6,-,N/A,,Mostly Cloudy,230,2013-01-14 20:54:00
4:14 PM,28.4,15.8,59,30.39,10.0,WSW,6.9,-,N/A,,Overcast,240,2013-01-14 21:14:00
4:34 PM,26.6,15.8,64,30.40,10.0,WSW,5.8,-,N/A,,Mostly Cloudy,250,2013-01-14 21:34:00
5:14 PM,26.6,15.8,64,30.41,10.0,SW,8.1,-,N/A,,Overcast,220,2013-01-14 22:14:00
5:34 PM,26.6,15.8,64,30.41,10.0,WSW,6.9,-,N/A,,Overcast,240,2013-01-14 22:34:00
5:54 PM,26.6,15.8,64,30.41,10.0,WSW,6.9,-,N/A,,Scattered Clouds,250,2013-01-14 22:54:00
6:14 PM,26.6,15.8,64,30.40,10.0,West,5.8,-,N/A,,Clear,260,2013-01-14 23:14:00
6:34 PM,24.8,15.8,69,30.40,10.0,West,8.1,-,N/A,,Clear,260,2013-01-14 23:34:00
6:55 PM,26.6,17.6,69,30.40,10.0,West,6.9,-,N/A,,Clear,270,2013-01-14 23:55:00
7:14 PM,26.6,17.6,69,30.40,10.0,WNW,5.8,-,N/A,,Scattered Clouds,290,2013-01-15 00:14:00
7:34 PM,26.6,17.6,69,30.39,10.0,WNW,5.8,-,N/A,,Scattered Clouds,300,2013-01-15 00:34:00
7:54 PM,24.8,15.8,69,30.39,10.0,WNW,4.6,-,N/A,,Scattered Clouds,290,2013-01-15 00:54:00
8:14 PM,24.8,17.6,74,30.38,10.0,WNW,5.8,-,N/A,,Scattered Clouds,290,2013-01-15 01:14:00
8:35 PM,24.8,17.6,74,30.38,10.0,WNW,4.6,-,N/A,,Clear,300,2013-01-15 01:35:00
8:54 PM,24.8,17.6,74,30.38,10.0,NW,4.6,-,N/A,,Clear,310,2013-01-15 01:54:00
9:14 PM,24.8,17.6,74,30.38,10.0,WNW,4.6,-,N/A,,Scattered Clouds,300,2013-01-15 02:14:00
9:34 PM,24.8,17.6,74,30.38,10.0,NW,4.6,-,N/A,,Mostly Cloudy,310,2013-01-15 02:34:00
9:54 PM,24.8,17.6,74,30.37,10.0,NNW,3.5,-,N/A,,Scattered Clouds,340,2013-01-15 02:54:00
10:14 PM,24.8,17.6,74,30.37,10.0,Calm,Calm,-,N/A,,Clear,0,2013-01-15 03:14:00
10:34 PM,24.8,17.6,74,30.36,10.0,NNW,4.6,-,N/A,,Clear,340,2013-01-15 03:34:00
10:54 PM,23.0,17.6,80,30.36,10.0,NNW,3.5,-,N/A,,Clear,340,2013-01-15 03:54:00
11:14 PM,23.0,17.6,80,30.37,10.0,NNW,3.5,-,N/A,,Clear,340,2013-01-15 04:14:00
11:34 PM,23.0,17.6,80,30.37,10.0,NNW,3.5,-,N/A,,Clear,340,2013-01-15 04:34:00
11:54 PM,23.0,17.6,80,30.38,10.0,NNW,3.5,-,N/A,,Clear,330,2013-01-15 04:54:00